sensor_id;sensor_type;location;lat;lon;timestamp;P1;durP1;ratioP1;P2;durP2;ratioP2
5054;SDS011;13829;48.990;8.346;2023-06-24T00:00:02;7.73;;;6.83;;
5054;SDS011;13829;48.990;8.346;2023-06-24T00:02:32;7.80;;;7.10;;
5054;SDS011;13829;48.990;8.346;2023-06-24T00:05:03;7.83;;;7.03;;
5054;SDS011;13829;48.990;8.346;2023-06-24T00:07:33;8.07;;;6.93;;
5054;SDS011;13829;48.990;8.346;2023-06-24T00:10:09;7.20;;;6.50;;
5054;SDS011;13829;48.990;8.346;2023-06-24T00:12:37;9.77;;;7.30;;
5054;SDS011;13829;48.990;8.346;2023-06-24T00:15:04;7.33;;;6.60;;
5054;SDS011;13829;48.990;8.346;2023-06-24T00:17:33;8.57;;;6.93;;
5054;SDS011;13829;48.990;8.346;2023-06-24T00:20:00;7.63;;;6.77;;
5054;SDS011;13829;48.990;8.346;2023-06-24T00:22:30;7.20;;;6.20;;
5054;SDS011;13829;48.990;8.346;2023-06-24T00:24:57;8.47;;;6.60;;
5054;SDS011;13829;48.990;8.346;2023-06-24T00:27:25;8.83;;;6.50;;
5054;SDS011;13829;48.990;8.346;2023-06-24T00:29:52;7.63;;;6.93;;
5054;SDS011;13829;48.990;8.346;2023-06-24T00:32:19;8.23;;;6.67;;
5054;SDS011;13829;48.990;8.346;2023-06-24T00:34:46;8.40;;;7.50;;
5054;SDS011;13829;48.990;8.346;2023-06-24T00:37:15;7.87;;;7.07;;
5054;SDS011;13829;48.990;8.346;2023-06-24T00:39:44;8.50;;;7.37;;
5054;SDS011;13829;48.990;8.346;2023-06-24T00:42:11;8.70;;;7.57;;
5054;SDS011;13829;48.990;8.346;2023-06-24T00:44:37;7.63;;;6.93;;
5054;SDS011;13829;48.990;8.346;2023-06-24T00:47:05;8.57;;;7.13;;
5054;SDS011;13829;48.990;8.346;2023-06-24T00:49:34;8.43;;;7.53;;
5054;SDS011;13829;48.990;8.346;2023-06-24T00:52:01;12.67;;;7.80;;
5054;SDS011;13829;48.990;8.346;2023-06-24T00:54:28;8.80;;;7.57;;
5054;SDS011;13829;48.990;8.346;2023-06-24T00:56:58;7.77;;;7.07;;
5054;SDS011;13829;48.990;8.346;2023-06-24T00:59:26;7.87;;;7.13;;
5054;SDS011;13829;48.990;8.346;2023-06-24T01:01:57;10.23;;;7.57;;
5054;SDS011;13829;48.990;8.346;2023-06-24T01:04:26;10.17;;;7.50;;
5054;SDS011;13829;48.990;8.346;2023-06-24T01:06:54;10.23;;;7.37;;
5054;SDS011;13829;48.990;8.346;2023-06-24T01:09:23;8.07;;;6.63;;
5054;SDS011;13829;48.990;8.346;2023-06-24T01:11:51;7.70;;;6.70;;
5054;SDS011;13829;48.990;8.346;2023-06-24T01:14:19;8.67;;;6.90;;
5054;SDS011;13829;48.990;8.346;2023-06-24T01:16:49;7.50;;;6.53;;
5054;SDS011;13829;48.990;8.346;2023-06-24T01:22:31;7.80;;;7.00;;
5054;SDS011;13829;48.990;8.346;2023-06-24T01:25:42;7.07;;;6.43;;
5054;SDS011;13829;48.990;8.346;2023-06-24T01:28:33;7.20;;;6.50;;
5054;SDS011;13829;48.990;8.346;2023-06-24T01:31:28;7.10;;;6.40;;
5054;SDS011;13829;48.990;8.346;2023-06-24T01:34:06;9.13;;;7.13;;
5054;SDS011;13829;48.990;8.346;2023-06-24T01:36:47;8.00;;;7.20;;
5054;SDS011;13829;48.990;8.346;2023-06-24T01:39:26;8.60;;;6.90;;
5054;SDS011;13829;48.990;8.346;2023-06-24T01:42:00;8.23;;;7.30;;
5054;SDS011;13829;48.990;8.346;2023-06-24T01:44:36;7.97;;;7.17;;
5054;SDS011;13829;48.990;8.346;2023-06-24T01:47:10;8.93;;;6.93;;
5054;SDS011;13829;48.990;8.346;2023-06-24T01:49:41;9.60;;;7.03;;
5054;SDS011;13829;48.990;8.346;2023-06-24T01:52:11;8.40;;;7.07;;
5054;SDS011;13829;48.990;8.346;2023-06-24T01:54:40;7.13;;;6.43;;
5054;SDS011;13829;48.990;8.346;2023-06-24T01:57:09;8.47;;;6.77;;
5054;SDS011;13829;48.990;8.346;2023-06-24T01:59:39;9.87;;;7.13;;
5054;SDS011;13829;48.990;8.346;2023-06-24T02:02:12;7.27;;;6.37;;
5054;SDS011;13829;48.990;8.346;2023-06-24T02:04:40;8.47;;;6.67;;
5054;SDS011;13829;48.990;8.346;2023-06-24T02:07:09;6.83;;;6.17;;
5054;SDS011;13829;48.990;8.346;2023-06-24T02:09:39;7.77;;;6.83;;
5054;SDS011;13829;48.990;8.346;2023-06-24T02:12:10;7.37;;;6.67;;
5054;SDS011;13829;48.990;8.346;2023-06-24T02:14:38;9.03;;;7.70;;
5054;SDS011;13829;48.990;8.346;2023-06-24T02:17:08;8.17;;;6.20;;
5054;SDS011;13829;48.990;8.346;2023-06-24T02:19:39;8.67;;;6.63;;
5054;SDS011;13829;48.990;8.346;2023-06-24T02:22:08;7.40;;;6.70;;
5054;SDS011;13829;48.990;8.346;2023-06-24T02:24:37;8.33;;;7.43;;
5054;SDS011;13829;48.990;8.346;2023-06-24T02:27:06;7.10;;;6.00;;
5054;SDS011;13829;48.990;8.346;2023-06-24T02:29:36;7.07;;;6.13;;
5054;SDS011;13829;48.990;8.346;2023-06-24T02:32:06;7.40;;;6.70;;
5054;SDS011;13829;48.990;8.346;2023-06-24T02:34:35;8.23;;;7.07;;
5054;SDS011;13829;48.990;8.346;2023-06-24T02:37:03;7.47;;;6.77;;
5054;SDS011;13829;48.990;8.346;2023-06-24T02:39:31;7.27;;;6.53;;
5054;SDS011;13829;48.990;8.346;2023-06-24T02:41:58;8.70;;;7.23;;
5054;SDS011;13829;48.990;8.346;2023-06-24T02:44:25;8.37;;;6.70;;
5054;SDS011;13829;48.990;8.346;2023-06-24T02:46:52;7.23;;;6.40;;
5054;SDS011;13829;48.990;8.346;2023-06-24T02:49:21;7.67;;;6.97;;
5054;SDS011;13829;48.990;8.346;2023-06-24T02:51:49;8.80;;;7.10;;
5054;SDS011;13829;48.990;8.346;2023-06-24T02:54:17;9.20;;;6.70;;
5054;SDS011;13829;48.990;8.346;2023-06-24T02:56:44;8.00;;;6.50;;
5054;SDS011;13829;48.990;8.346;2023-06-24T02:59:13;7.53;;;6.83;;
5054;SDS011;13829;48.990;8.346;2023-06-24T03:01:40;7.40;;;6.70;;
5054;SDS011;13829;48.990;8.346;2023-06-24T03:04:10;7.50;;;6.33;;
5054;SDS011;13829;48.990;8.346;2023-06-24T03:06:38;8.13;;;6.57;;
5054;SDS011;13829;48.990;8.346;2023-06-24T03:09:06;7.40;;;6.57;;
5054;SDS011;13829;48.990;8.346;2023-06-24T03:11:41;7.50;;;6.77;;
5054;SDS011;13829;48.990;8.346;2023-06-24T03:14:08;6.93;;;6.33;;
5054;SDS011;13829;48.990;8.346;2023-06-24T03:16:36;7.33;;;6.53;;
5054;SDS011;13829;48.990;8.346;2023-06-24T03:19:04;7.67;;;6.97;;
5054;SDS011;13829;48.990;8.346;2023-06-24T03:21:31;7.87;;;7.07;;
5054;SDS011;13829;48.990;8.346;2023-06-24T03:23:58;8.73;;;6.30;;
5054;SDS011;13829;48.990;8.346;2023-06-24T03:26:30;10.33;;;6.90;;
5054;SDS011;13829;48.990;8.346;2023-06-24T03:29:00;7.80;;;7.10;;
5054;SDS011;13829;48.990;8.346;2023-06-24T03:31:27;7.37;;;6.63;;
5054;SDS011;13829;48.990;8.346;2023-06-24T03:33:54;7.43;;;6.77;;
5054;SDS011;13829;48.990;8.346;2023-06-24T03:36:21;8.03;;;6.83;;
5054;SDS011;13829;48.990;8.346;2023-06-24T03:38:49;7.17;;;6.47;;
5054;SDS011;13829;48.990;8.346;2023-06-24T03:41:15;7.90;;;7.20;;
5054;SDS011;13829;48.990;8.346;2023-06-24T03:43:42;7.70;;;7.00;;
5054;SDS011;13829;48.990;8.346;2023-06-24T03:46:11;7.33;;;6.30;;
5054;SDS011;13829;48.990;8.346;2023-06-24T03:48:38;7.73;;;6.93;;
5054;SDS011;13829;48.990;8.346;2023-06-24T03:51:05;7.00;;;6.30;;
5054;SDS011;13829;48.990;8.346;2023-06-24T03:53:32;7.77;;;6.97;;
5054;SDS011;13829;48.990;8.346;2023-06-24T03:55:59;9.83;;;6.73;;
5054;SDS011;13829;48.990;8.346;2023-06-24T03:58:26;7.83;;;6.70;;
5054;SDS011;13829;48.990;8.346;2023-06-24T04:00:53;7.87;;;6.57;;
5054;SDS011;13829;48.990;8.346;2023-06-24T04:03:23;7.70;;;6.20;;
5054;SDS011;13829;48.990;8.346;2023-06-24T04:05:52;7.93;;;6.83;;
5054;SDS011;13829;48.990;8.346;2023-06-24T04:08:20;7.50;;;6.77;;
5054;SDS011;13829;48.990;8.346;2023-06-24T04:10:50;9.03;;;6.57;;
5054;SDS011;13829;48.990;8.346;2023-06-24T04:13:17;7.20;;;6.50;;
5054;SDS011;13829;48.990;8.346;2023-06-24T04:15:44;7.70;;;6.17;;
5054;SDS011;13829;48.990;8.346;2023-06-24T04:18:11;7.03;;;6.30;;
5054;SDS011;13829;48.990;8.346;2023-06-24T04:20:39;7.87;;;5.90;;
5054;SDS011;13829;48.990;8.346;2023-06-24T04:23:06;7.27;;;6.43;;
5054;SDS011;13829;48.990;8.346;2023-06-24T04:25:35;6.53;;;5.70;;
5054;SDS011;13829;48.990;8.346;2023-06-24T04:28:03;6.97;;;6.10;;
5054;SDS011;13829;48.990;8.346;2023-06-24T04:30:30;7.13;;;5.80;;
5054;SDS011;13829;48.990;8.346;2023-06-24T04:32:57;7.13;;;6.30;;
5054;SDS011;13829;48.990;8.346;2023-06-24T04:35:24;7.47;;;6.17;;
5054;SDS011;13829;48.990;8.346;2023-06-24T04:37:53;7.03;;;6.33;;
5054;SDS011;13829;48.990;8.346;2023-06-24T04:40:19;6.30;;;5.70;;
5054;SDS011;13829;48.990;8.346;2023-06-24T04:42:46;7.03;;;6.33;;
5054;SDS011;13829;48.990;8.346;2023-06-24T04:45:14;6.60;;;6.00;;
5054;SDS011;13829;48.990;8.346;2023-06-24T04:47:41;7.13;;;6.00;;
5054;SDS011;13829;48.990;8.346;2023-06-24T04:50:09;6.23;;;5.63;;
5054;SDS011;13829;48.990;8.346;2023-06-24T04:52:37;7.73;;;5.83;;
5054;SDS011;13829;48.990;8.346;2023-06-24T04:55:07;7.07;;;6.33;;
5054;SDS011;13829;48.990;8.346;2023-06-24T04:57:34;7.00;;;6.40;;
5054;SDS011;13829;48.990;8.346;2023-06-24T05:00:02;8.57;;;6.50;;
5054;SDS011;13829;48.990;8.346;2023-06-24T05:02:30;7.33;;;6.47;;
5054;SDS011;13829;48.990;8.346;2023-06-24T05:04:58;7.90;;;5.90;;
5054;SDS011;13829;48.990;8.346;2023-06-24T05:07:25;7.60;;;6.80;;
5054;SDS011;13829;48.990;8.346;2023-06-24T05:09:52;7.83;;;5.87;;
5054;SDS011;13829;48.990;8.346;2023-06-24T05:12:20;8.93;;;6.13;;
5054;SDS011;13829;48.990;8.346;2023-06-24T05:14:49;9.43;;;6.37;;
5054;SDS011;13829;48.990;8.346;2023-06-24T05:17:17;9.33;;;7.27;;
5054;SDS011;13829;48.990;8.346;2023-06-24T05:19:44;7.97;;;6.23;;
5054;SDS011;13829;48.990;8.346;2023-06-24T05:22:11;10.13;;;6.47;;
5054;SDS011;13829;48.990;8.346;2023-06-24T05:24:39;10.38;;;7.18;;
5054;SDS011;13829;48.990;8.346;2023-06-24T05:27:06;9.20;;;7.03;;
5054;SDS011;13829;48.990;8.346;2023-06-24T05:29:35;6.97;;;6.28;;
5054;SDS011;13829;48.990;8.346;2023-06-24T05:32:02;6.75;;;5.95;;
5054;SDS011;13829;48.990;8.346;2023-06-24T05:34:31;8.80;;;6.67;;
5054;SDS011;13829;48.990;8.346;2023-06-24T05:36:58;6.03;;;5.45;;
5054;SDS011;13829;48.990;8.346;2023-06-24T05:39:25;7.82;;;6.75;;
5054;SDS011;13829;48.990;8.346;2023-06-24T05:41:52;7.20;;;6.60;;
5054;SDS011;13829;48.990;8.346;2023-06-24T05:44:19;6.90;;;6.28;;
5054;SDS011;13829;48.990;8.346;2023-06-24T05:46:49;9.57;;;7.25;;
5054;SDS011;13829;48.990;8.346;2023-06-24T05:49:16;7.05;;;6.30;;
5054;SDS011;13829;48.990;8.346;2023-06-24T05:51:43;6.97;;;6.28;;
5054;SDS011;13829;48.990;8.346;2023-06-24T05:54:10;8.75;;;7.82;;
5054;SDS011;13829;48.990;8.346;2023-06-24T05:56:37;10.13;;;7.25;;
5054;SDS011;13829;48.990;8.346;2023-06-24T05:59:04;8.07;;;7.28;;
5054;SDS011;13829;48.990;8.346;2023-06-24T06:01:31;9.40;;;6.88;;
5054;SDS011;13829;48.990;8.346;2023-06-24T06:03:59;7.20;;;6.53;;
5054;SDS011;13829;48.990;8.346;2023-06-24T06:06:26;7.93;;;7.13;;
5054;SDS011;13829;48.990;8.346;2023-06-24T06:08:53;6.43;;;5.82;;
5054;SDS011;13829;48.990;8.346;2023-06-24T06:11:20;9.90;;;7.00;;
5054;SDS011;13829;48.990;8.346;2023-06-24T06:13:47;9.18;;;6.70;;
5054;SDS011;13829;48.990;8.346;2023-06-24T06:16:13;7.63;;;6.88;;
5054;SDS011;13829;48.990;8.346;2023-06-24T06:18:40;5.80;;;5.22;;
5054;SDS011;13829;48.990;8.346;2023-06-24T06:21:09;7.55;;;6.75;;
5054;SDS011;13829;48.990;8.346;2023-06-24T06:23:36;8.75;;;6.25;;
5054;SDS011;13829;48.990;8.346;2023-06-24T06:26:03;7.18;;;5.40;;
5054;SDS011;13829;48.990;8.346;2023-06-24T06:28:30;5.90;;;5.40;;
5054;SDS011;13829;48.990;8.346;2023-06-24T06:30:57;6.03;;;4.70;;
5054;SDS011;13829;48.990;8.346;2023-06-24T06:33:23;7.85;;;5.63;;
5054;SDS011;13829;48.990;8.346;2023-06-24T06:35:50;5.70;;;5.20;;
5054;SDS011;13829;48.990;8.346;2023-06-24T06:38:19;7.18;;;5.80;;
5054;SDS011;13829;48.990;8.346;2023-06-24T06:40:46;6.82;;;5.75;;
5054;SDS011;13829;48.990;8.346;2023-06-24T06:43:13;6.00;;;4.85;;
5054;SDS011;13829;48.990;8.346;2023-06-24T06:45:39;6.43;;;5.45;;
5054;SDS011;13829;48.990;8.346;2023-06-24T06:48:06;5.80;;;4.75;;
5054;SDS011;13829;48.990;8.346;2023-06-24T06:50:34;5.07;;;4.47;;
5054;SDS011;13829;48.990;8.346;2023-06-24T06:53:01;6.43;;;5.03;;
5054;SDS011;13829;48.990;8.346;2023-06-24T06:55:29;5.97;;;4.85;;
5054;SDS011;13829;48.990;8.346;2023-06-24T06:57:56;8.73;;;4.95;;
5054;SDS011;13829;48.990;8.346;2023-06-24T07:00:23;5.28;;;4.78;;
5054;SDS011;13829;48.990;8.346;2023-06-24T07:02:50;5.40;;;4.90;;
5054;SDS011;13829;48.990;8.346;2023-06-24T07:05:17;5.25;;;4.78;;
5054;SDS011;13829;48.990;8.346;2023-06-24T07:07:44;5.05;;;4.55;;
5054;SDS011;13829;48.990;8.346;2023-06-24T07:10:11;7.40;;;5.00;;
5054;SDS011;13829;48.990;8.346;2023-06-24T07:12:39;9.45;;;4.63;;
5054;SDS011;13829;48.990;8.346;2023-06-24T07:15:07;6.07;;;5.20;;
5054;SDS011;13829;48.990;8.346;2023-06-24T07:17:35;4.38;;;3.97;;
5054;SDS011;13829;48.990;8.346;2023-06-24T07:20:02;5.30;;;4.80;;
5054;SDS011;13829;48.990;8.346;2023-06-24T07:22:30;5.82;;;4.70;;
5054;SDS011;13829;48.990;8.346;2023-06-24T07:24:57;5.05;;;4.55;;
5054;SDS011;13829;48.990;8.346;2023-06-24T07:27:25;4.85;;;4.40;;
5054;SDS011;13829;48.990;8.346;2023-06-24T07:29:53;8.93;;;5.13;;
5054;SDS011;13829;48.990;8.346;2023-06-24T07:32:20;4.05;;;3.60;;
5054;SDS011;13829;48.990;8.346;2023-06-24T07:34:47;6.40;;;4.18;;
5054;SDS011;13829;48.990;8.346;2023-06-24T07:37:14;4.68;;;4.28;;
5054;SDS011;13829;48.990;8.346;2023-06-24T07:39:41;4.38;;;3.97;;
5054;SDS011;13829;48.990;8.346;2023-06-24T07:42:08;7.30;;;3.45;;
5054;SDS011;13829;48.990;8.346;2023-06-24T07:44:35;6.07;;;4.22;;
5054;SDS011;13829;48.990;8.346;2023-06-24T07:47:06;6.22;;;4.28;;
5054;SDS011;13829;48.990;8.346;2023-06-24T07:49:33;4.90;;;4.28;;
5054;SDS011;13829;48.990;8.346;2023-06-24T07:52:00;4.38;;;3.85;;
5054;SDS011;13829;48.990;8.346;2023-06-24T07:54:27;4.07;;;3.78;;
5054;SDS011;13829;48.990;8.346;2023-06-24T07:56:54;4.13;;;3.47;;
5054;SDS011;13829;48.990;8.346;2023-06-24T07:59:21;4.93;;;4.18;;
5054;SDS011;13829;48.990;8.346;2023-06-24T08:01:48;3.97;;;3.58;;
5054;SDS011;13829;48.990;8.346;2023-06-24T08:04:16;4.78;;;3.63;;
5054;SDS011;13829;48.990;8.346;2023-06-24T08:06:43;5.82;;;3.83;;
5054;SDS011;13829;48.990;8.346;2023-06-24T08:09:10;4.47;;;3.80;;
5054;SDS011;13829;48.990;8.346;2023-06-24T08:11:37;3.90;;;3.58;;
5054;SDS011;13829;48.990;8.346;2023-06-24T08:14:04;4.22;;;3.83;;
5054;SDS011;13829;48.990;8.346;2023-06-24T08:16:32;3.88;;;3.58;;
5054;SDS011;13829;48.990;8.346;2023-06-24T08:18:59;4.63;;;4.18;;
5054;SDS011;13829;48.990;8.346;2023-06-24T08:21:27;12.88;;;4.53;;
5054;SDS011;13829;48.990;8.346;2023-06-24T08:23:54;4.28;;;3.88;;
5054;SDS011;13829;48.990;8.346;2023-06-24T08:26:21;4.43;;;4.03;;
5054;SDS011;13829;48.990;8.346;2023-06-24T08:28:48;3.90;;;3.50;;
5054;SDS011;13829;48.990;8.346;2023-06-24T08:31:15;4.35;;;3.17;;
5054;SDS011;13829;48.990;8.346;2023-06-24T08:33:43;5.72;;;3.90;;
5054;SDS011;13829;48.990;8.346;2023-06-24T08:36:11;9.20;;;6.47;;
5054;SDS011;13829;48.990;8.346;2023-06-24T08:38:39;4.20;;;3.60;;
5054;SDS011;13829;48.990;8.346;2023-06-24T08:41:06;3.78;;;3.35;;
5054;SDS011;13829;48.990;8.346;2023-06-24T08:43:33;4.70;;;3.92;;
5054;SDS011;13829;48.990;8.346;2023-06-24T08:46:01;3.72;;;3.42;;
5054;SDS011;13829;48.990;8.346;2023-06-24T08:48:28;4.18;;;3.78;;
5054;SDS011;13829;48.990;8.346;2023-06-24T08:50:57;5.53;;;3.60;;
5054;SDS011;13829;48.990;8.346;2023-06-24T08:53:27;4.30;;;3.90;;
5054;SDS011;13829;48.990;8.346;2023-06-24T08:55:56;4.28;;;3.88;;
5054;SDS011;13829;48.990;8.346;2023-06-24T08:58:24;4.15;;;3.75;;
5054;SDS011;13829;48.990;8.346;2023-06-24T09:00:52;4.30;;;3.78;;
5054;SDS011;13829;48.990;8.346;2023-06-24T09:03:19;5.03;;;3.78;;
5054;SDS011;13829;48.990;8.346;2023-06-24T09:05:46;5.13;;;3.83;;
5054;SDS011;13829;48.990;8.346;2023-06-24T09:08:13;5.13;;;3.85;;
5054;SDS011;13829;48.990;8.346;2023-06-24T09:10:41;4.05;;;3.65;;
5054;SDS011;13829;48.990;8.346;2023-06-24T09:13:09;4.30;;;3.45;;
5054;SDS011;13829;48.990;8.346;2023-06-24T09:15:37;4.20;;;3.85;;
5054;SDS011;13829;48.990;8.346;2023-06-24T09:18:04;5.10;;;3.60;;
5054;SDS011;13829;48.990;8.346;2023-06-24T09:20:32;4.10;;;3.80;;
5054;SDS011;13829;48.990;8.346;2023-06-24T09:23:04;5.43;;;3.75;;
5054;SDS011;13829;48.990;8.346;2023-06-24T09:25:31;4.60;;;4.20;;
5054;SDS011;13829;48.990;8.346;2023-06-24T09:27:58;4.13;;;3.70;;
5054;SDS011;13829;48.990;8.346;2023-06-24T09:30:27;4.15;;;3.67;;
5054;SDS011;13829;48.990;8.346;2023-06-24T09:32:55;4.07;;;3.70;;
5054;SDS011;13829;48.990;8.346;2023-06-24T09:35:23;4.20;;;3.75;;
5054;SDS011;13829;48.990;8.346;2023-06-24T09:37:52;4.50;;;4.10;;
5054;SDS011;13829;48.990;8.346;2023-06-24T09:40:21;4.07;;;3.67;;
5054;SDS011;13829;48.990;8.346;2023-06-24T09:42:53;5.25;;;3.90;;
5054;SDS011;13829;48.990;8.346;2023-06-24T09:45:22;4.22;;;3.80;;
5054;SDS011;13829;48.990;8.346;2023-06-24T09:47:52;5.32;;;3.65;;
5054;SDS011;13829;48.990;8.346;2023-06-24T09:50:20;4.38;;;3.97;;
5054;SDS011;13829;48.990;8.346;2023-06-24T09:52:48;8.05;;;4.10;;
5054;SDS011;13829;48.990;8.346;2023-06-24T09:55:17;4.68;;;4.20;;
5054;SDS011;13829;48.990;8.346;2023-06-24T09:57:45;5.45;;;3.88;;
5054;SDS011;13829;48.990;8.346;2023-06-24T10:00:18;6.28;;;4.00;;
5054;SDS011;13829;48.990;8.346;2023-06-24T10:02:46;4.43;;;4.03;;
5054;SDS011;13829;48.990;8.346;2023-06-24T10:05:16;6.43;;;3.78;;
5054;SDS011;13829;48.990;8.346;2023-06-24T10:07:44;4.03;;;3.67;;
5054;SDS011;13829;48.990;8.346;2023-06-24T10:10:11;4.18;;;3.78;;
5054;SDS011;13829;48.990;8.346;2023-06-24T10:12:39;4.63;;;3.80;;
5054;SDS011;13829;48.990;8.346;2023-06-24T10:15:06;5.40;;;3.63;;
5054;SDS011;13829;48.990;8.346;2023-06-24T10:17:34;7.35;;;3.20;;
5054;SDS011;13829;48.990;8.346;2023-06-24T10:20:03;4.82;;;3.60;;
5054;SDS011;13829;48.990;8.346;2023-06-24T10:22:32;4.72;;;3.15;;
5054;SDS011;13829;48.990;8.346;2023-06-24T10:25:01;4.15;;;3.60;;
5054;SDS011;13829;48.990;8.346;2023-06-24T10:27:37;4.57;;;4.13;;
5054;SDS011;13829;48.990;8.346;2023-06-24T10:30:07;3.97;;;3.58;;
5054;SDS011;13829;48.990;8.346;2023-06-24T10:32:42;5.18;;;4.00;;
5054;SDS011;13829;48.990;8.346;2023-06-24T10:35:20;4.65;;;3.97;;
5054;SDS011;13829;48.990;8.346;2023-06-24T10:37:55;3.78;;;3.35;;
5054;SDS011;13829;48.990;8.346;2023-06-24T10:40:36;3.78;;;3.47;;
5054;SDS011;13829;48.990;8.346;2023-06-24T10:45:53;6.25;;;3.88;;
5054;SDS011;13829;48.990;8.346;2023-06-24T10:48:22;4.30;;;3.90;;
5054;SDS011;13829;48.990;8.346;2023-06-24T10:50:49;3.70;;;3.40;;
5054;SDS011;13829;48.990;8.346;2023-06-24T10:53:18;3.90;;;3.35;;
5054;SDS011;13829;48.990;8.346;2023-06-24T10:55:45;3.65;;;3.20;;
5054;SDS011;13829;48.990;8.346;2023-06-24T10:58:13;3.58;;;3.08;;
5054;SDS011;13829;48.990;8.346;2023-06-24T11:00:41;5.75;;;2.67;;
5054;SDS011;13829;48.990;8.346;2023-06-24T11:03:11;4.03;;;3.63;;
5054;SDS011;13829;48.990;8.346;2023-06-24T11:05:40;3.65;;;3.35;;
5054;SDS011;13829;48.990;8.346;2023-06-24T11:08:09;4.55;;;3.55;;
5054;SDS011;13829;48.990;8.346;2023-06-24T11:10:46;4.90;;;3.28;;
5054;SDS011;13829;48.990;8.346;2023-06-24T11:13:14;4.45;;;3.35;;
5054;SDS011;13829;48.990;8.346;2023-06-24T11:15:41;4.10;;;3.55;;
5054;SDS011;13829;48.990;8.346;2023-06-24T11:18:08;4.30;;;3.28;;
5054;SDS011;13829;48.990;8.346;2023-06-24T11:20:36;4.00;;;3.60;;
5054;SDS011;13829;48.990;8.346;2023-06-24T11:23:08;4.22;;;3.83;;
5054;SDS011;13829;48.990;8.346;2023-06-24T11:25:39;6.65;;;4.15;;
5054;SDS011;13829;48.990;8.346;2023-06-24T11:28:16;4.32;;;3.60;;
5054;SDS011;13829;48.990;8.346;2023-06-24T11:30:44;4.13;;;3.72;;
5054;SDS011;13829;48.990;8.346;2023-06-24T11:33:11;4.10;;;3.70;;
5054;SDS011;13829;48.990;8.346;2023-06-24T11:35:38;3.88;;;3.58;;
5054;SDS011;13829;48.990;8.346;2023-06-24T11:38:05;5.78;;;4.18;;
5054;SDS011;13829;48.990;8.346;2023-06-24T11:40:33;3.92;;;3.30;;
5054;SDS011;13829;48.990;8.346;2023-06-24T11:43:00;3.78;;;3.30;;
5054;SDS011;13829;48.990;8.346;2023-06-24T11:45:29;4.97;;;3.50;;
5054;SDS011;13829;48.990;8.346;2023-06-24T11:48:02;3.55;;;3.25;;
5054;SDS011;13829;48.990;8.346;2023-06-24T11:50:30;7.55;;;3.90;;
5054;SDS011;13829;48.990;8.346;2023-06-24T11:52:57;4.97;;;3.72;;
5054;SDS011;13829;48.990;8.346;2023-06-24T11:55:25;3.72;;;3.22;;
5054;SDS011;13829;48.990;8.346;2023-06-24T11:57:54;4.40;;;3.60;;
5054;SDS011;13829;48.990;8.346;2023-06-24T12:00:23;5.15;;;3.60;;
5054;SDS011;13829;48.990;8.346;2023-06-24T12:02:54;4.72;;;3.85;;
5054;SDS011;13829;48.990;8.346;2023-06-24T12:05:23;4.05;;;3.63;;
5054;SDS011;13829;48.990;8.346;2023-06-24T12:07:55;3.70;;;3.40;;
5054;SDS011;13829;48.990;8.346;2023-06-24T12:10:24;4.18;;;3.78;;
5054;SDS011;13829;48.990;8.346;2023-06-24T12:12:52;4.68;;;3.85;;
5054;SDS011;13829;48.990;8.346;2023-06-24T12:15:19;5.13;;;3.83;;
5054;SDS011;13829;48.990;8.346;2023-06-24T12:17:46;3.90;;;3.50;;
5054;SDS011;13829;48.990;8.346;2023-06-24T12:20:14;5.18;;;4.28;;
5054;SDS011;13829;48.990;8.346;2023-06-24T12:22:43;4.00;;;3.60;;
5054;SDS011;13829;48.990;8.346;2023-06-24T12:25:10;3.70;;;3.40;;
5054;SDS011;13829;48.990;8.346;2023-06-24T12:27:37;4.90;;;3.63;;
5054;SDS011;13829;48.990;8.346;2023-06-24T12:30:06;3.80;;;3.50;;
5054;SDS011;13829;48.990;8.346;2023-06-24T12:32:34;4.88;;;3.53;;
5054;SDS011;13829;48.990;8.346;2023-06-24T12:35:02;4.10;;;3.30;;
5054;SDS011;13829;48.990;8.346;2023-06-24T12:37:32;5.30;;;3.75;;
5054;SDS011;13829;48.990;8.346;2023-06-24T12:40:00;4.10;;;3.70;;
5054;SDS011;13829;48.990;8.346;2023-06-24T12:42:27;3.95;;;3.55;;
5054;SDS011;13829;48.990;8.346;2023-06-24T12:44:54;4.80;;;3.70;;
5054;SDS011;13829;48.990;8.346;2023-06-24T12:47:21;4.07;;;3.65;;
5054;SDS011;13829;48.990;8.346;2023-06-24T12:49:48;3.90;;;3.50;;
5054;SDS011;13829;48.990;8.346;2023-06-24T12:52:15;5.00;;;3.85;;
5054;SDS011;13829;48.990;8.346;2023-06-24T12:54:44;4.35;;;3.45;;
5054;SDS011;13829;48.990;8.346;2023-06-24T12:57:11;4.28;;;3.45;;
5054;SDS011;13829;48.990;8.346;2023-06-24T12:59:38;4.35;;;3.53;;
5054;SDS011;13829;48.990;8.346;2023-06-24T13:02:05;4.38;;;3.85;;
5054;SDS011;13829;48.990;8.346;2023-06-24T13:04:32;4.03;;;3.53;;
5054;SDS011;13829;48.990;8.346;2023-06-24T13:06:59;4.13;;;3.47;;
5054;SDS011;13829;48.990;8.346;2023-06-24T13:09:27;4.18;;;3.55;;
5054;SDS011;13829;48.990;8.346;2023-06-24T13:11:55;4.20;;;3.80;;
5054;SDS011;13829;48.990;8.346;2023-06-24T13:14:22;4.22;;;3.40;;
5054;SDS011;13829;48.990;8.346;2023-06-24T13:16:50;3.45;;;3.15;;
5054;SDS011;13829;48.990;8.346;2023-06-24T13:19:17;5.13;;;3.65;;
5054;SDS011;13829;48.990;8.346;2023-06-24T13:21:44;4.20;;;3.47;;
5054;SDS011;13829;48.990;8.346;2023-06-24T13:24:11;4.85;;;3.22;;
5054;SDS011;13829;48.990;8.346;2023-06-24T13:26:38;4.28;;;3.42;;
5054;SDS011;13829;48.990;8.346;2023-06-24T13:29:07;3.67;;;3.38;;
5054;SDS011;13829;48.990;8.346;2023-06-24T13:31:34;3.90;;;3.50;;
5054;SDS011;13829;48.990;8.346;2023-06-24T13:34:01;4.00;;;3.60;;
5054;SDS011;13829;48.990;8.346;2023-06-24T13:36:31;4.55;;;3.58;;
5054;SDS011;13829;48.990;8.346;2023-06-24T13:39:00;3.60;;;3.30;;
5054;SDS011;13829;48.990;8.346;2023-06-24T13:41:28;4.35;;;3.88;;
5054;SDS011;13829;48.990;8.346;2023-06-24T13:43:57;4.35;;;3.63;;
5054;SDS011;13829;48.990;8.346;2023-06-24T13:46:27;3.63;;;3.30;;
5054;SDS011;13829;48.990;8.346;2023-06-24T13:48:55;4.72;;;3.70;;
5054;SDS011;13829;48.990;8.346;2023-06-24T13:51:22;4.30;;;3.72;;
5054;SDS011;13829;48.990;8.346;2023-06-24T13:53:50;4.07;;;3.70;;
5054;SDS011;13829;48.990;8.346;2023-06-24T13:56:19;3.85;;;3.50;;
5054;SDS011;13829;48.990;8.346;2023-06-24T13:58:49;3.75;;;3.45;;
5054;SDS011;13829;48.990;8.346;2023-06-24T14:01:17;3.83;;;3.40;;
5054;SDS011;13829;48.990;8.346;2023-06-24T14:03:46;4.10;;;3.55;;
5054;SDS011;13829;48.990;8.346;2023-06-24T14:06:13;5.13;;;3.47;;
5054;SDS011;13829;48.990;8.346;2023-06-24T14:08:43;3.47;;;3.17;;
5054;SDS011;13829;48.990;8.346;2023-06-24T14:11:10;5.05;;;3.40;;
5054;SDS011;13829;48.990;8.346;2023-06-24T14:13:38;4.55;;;3.67;;
5054;SDS011;13829;48.990;8.346;2023-06-24T14:16:06;4.10;;;3.47;;
5054;SDS011;13829;48.990;8.346;2023-06-24T14:18:33;4.35;;;3.88;;
5054;SDS011;13829;48.990;8.346;2023-06-24T14:21:02;5.85;;;3.40;;
5054;SDS011;13829;48.990;8.346;2023-06-24T14:23:32;4.80;;;3.78;;
5054;SDS011;13829;48.990;8.346;2023-06-24T14:25:59;3.60;;;3.30;;
5054;SDS011;13829;48.990;8.346;2023-06-24T14:28:26;6.43;;;3.53;;
5054;SDS011;13829;48.990;8.346;2023-06-24T14:30:53;3.78;;;3.45;;
5054;SDS011;13829;48.990;8.346;2023-06-24T14:33:20;5.88;;;3.53;;
5054;SDS011;13829;48.990;8.346;2023-06-24T14:35:47;5.55;;;3.53;;
5054;SDS011;13829;48.990;8.346;2023-06-24T14:38:17;6.05;;;3.95;;
5054;SDS011;13829;48.990;8.346;2023-06-24T14:40:44;4.20;;;3.78;;
5054;SDS011;13829;48.990;8.346;2023-06-24T14:43:11;4.13;;;3.55;;
5054;SDS011;13829;48.990;8.346;2023-06-24T14:45:38;3.53;;;3.20;;
5054;SDS011;13829;48.990;8.346;2023-06-24T14:48:05;4.15;;;3.80;;
5054;SDS011;13829;48.990;8.346;2023-06-24T14:50:32;3.97;;;3.55;;
5054;SDS011;13829;48.990;8.346;2023-06-24T14:52:59;3.45;;;3.15;;
5054;SDS011;13829;48.990;8.346;2023-06-24T14:55:27;4.65;;;3.30;;
5054;SDS011;13829;48.990;8.346;2023-06-24T14:57:54;4.15;;;3.10;;
5054;SDS011;13829;48.990;8.346;2023-06-24T15:00:21;4.25;;;3.40;;
5054;SDS011;13829;48.990;8.346;2023-06-24T15:02:48;3.80;;;3.50;;
5054;SDS011;13829;48.990;8.346;2023-06-24T15:05:16;4.78;;;3.53;;
5054;SDS011;13829;48.990;8.346;2023-06-24T15:07:43;3.90;;;3.22;;
5054;SDS011;13829;48.990;8.346;2023-06-24T15:10:10;4.80;;;3.78;;
5054;SDS011;13829;48.990;8.346;2023-06-24T15:12:38;3.65;;;3.35;;